Latest Coastal Weather Observations for Bairnsdale

IDV60701

Issued at 5:11 am EDT Thursday 23 November 2017 (issued every 10 minutes, with the page automatically refreshed every 10 minutes)

About coastal observations | Map of coastal stations | Coastal observations for VIC | Marine services | Other Formats
Station Details ID: 085279 Name: BAIRNSDALE AIRPORT Lat: -37.88 Lon: 147.57 Height: 49.4 m
Data from the previous 72 hours. | See also: Recent months at Bairnsdale
Date/Time
EDT
Temp
°C
Wind Pressure Rain since
9am
mm
Weather Cloud Vis
km
Sea
Height
m
Swell
Dir  Spd
kts
Gust
kts
hPa Trend Height
m
Period
s
Dir
23/05:00am 10.5 WNW 1 3 1011.7 - 0.2 - Clear 10 - - - -
23/04:30am 10.3 WNW 5 6 1011.5 - 0.2 - - 10 - - - -
23/04:02am 10.5 NNW 4 5 1011.6 - 0.2 - Partly cloudy 10 - - - -
23/04:00am 10.7 NNW 4 5 1011.6 - 0.2 - Partly cloudy 10 - - - -
23/03:59am 10.6 NNW 4 5 1011.6 - 0.2 - Partly cloudy 10 - - - -
23/03:30am 11.9 NNW 3 5 1011.7 - 0.2 - Cloudy 0.4 - - - -
23/03:13am 12.0 NNW 3 5 1011.8 - 0.2 - Partly cloudy 2 - - - -
23/03:03am 12.5 NNW 4 5 1011.8 - 0.2 - Partly cloudy 5 - - - -
23/03:00am 12.7 NNW 4 5 1011.9 - 0.2 - - 6 - - - -
23/02:59am 12.7 NNW 4 5 1011.9 - 0.2 - - 6 - - - -
23/02:30am 12.2 WNW 6 7 1012.2 - 0.2 - - 4 - - - -
23/02:24am 12.1 NW 6 7 1012.2 - 0.2 - - 5 - - - -
23/02:00am 12.6 NW 9 10 1012.4 - 0.2 - - 7 - - - -
23/01:55am 12.6 NW 8 10 1012.4 - 0.2 - - 7 - - - -
23/01:30am 12.5 WNW 8 9 1012.8 - 0.2 - - 6 - - - -
23/01:15am 12.1 WNW 5 6 1013.0 - 0.2 - - 5 - - - -
23/01:00am 12.8 W 4 5 1013.1 - 0.2 - - 7 - - - -
23/12:30am 12.2 WNW 5 7 1013.3 - 0.2 - - 8 - - - -
23/12:00am 12.3 WNW 5 6 1013.5 - 0.2 - Mostly clear 7 - - - -
 
Date/Time
EDT
Temp
°C
Wind Pressure Rain since
9am
mm
Weather Cloud Vis
km
Sea
Height
m
Swell
Dir  Spd
kts
Gust
kts
hPa Trend Height
m
Period
s
Dir
22/11:30pm 12.7 WNW 8 9 1013.7 - 0.2 - - 8 - - - -
22/11:00pm 11.7 WNW 5 7 1013.9 - 0.2 - - 8 - - - -
22/10:30pm 12.4 SSW 6 6 1014.0 - 0.2 - - 10 - - - -
22/10:00pm 12.8 SW 7 8 1014.1 - 0.2 - - 10 - - - -
22/09:30pm 13.6 SSW 5 6 1014.1 - 0.2 - - 10 - - - -
22/09:00pm 14.7 SSW 7 7 1014.0 - 0.2 - - 10 - - - -
22/08:30pm 16.1 S 5 6 1013.8 - 0.2 - - 10 - - - -
22/08:00pm 19.2 SSE 7 9 1013.6 - 0.2 - - 10 - - - -
22/07:30pm 21.2 SE 7 9 1013.4 - 0.2 - - 10 - - - -
22/07:00pm 24.2 ESE 9 13 1013.4 - 0.2 - - 10 - - - -
22/06:30pm 25.2 ESE 10 13 1013.4 - 0.2 - - 10 - - - -
22/06:00pm 24.2 ESE 8 11 1013.4 - 0.2 - - 10 - - - -
22/05:30pm 23.9 ESE 10 13 1013.6 - 0.2 - - 10 - - - -
22/05:00pm 24.1 ESE 14 17 1013.7 - 0.2 - - 10 - - - -
22/04:30pm 24.9 E 13 16 1013.9 - 0.2 - - 10 - - - -
22/04:00pm 24.1 ESE 14 18 1013.9 - 0.2 - - 10 - - - -
22/03:30pm 24.7 SE 14 18 1014.3 - 0.2 - - 10 - - - -
22/03:00pm 24.5 ESE 12 16 1014.8 - 0.2 - - 10 - - - -
22/02:30pm 24.3 ESE 13 17 1015.2 - 0.2 - - 10 - - - -
22/02:00pm 23.9 ESE 13 17 1015.6 - 0.2 - - 10 - - - -
22/01:30pm 23.2 ESE 12 16 1016.0 - 0.2 - - 10 - - - -
22/01:00pm 22.9 ESE 12 16 1016.2 - 0.2 - - 10 - - - -
22/12:30pm 23.1 ESE 9 14 1016.4 - 0.2 - - 10 - - - -
22/12:00pm 24.0 SE 10 14 1016.7 - 0.2 Recent precip. - 10 - - - -
22/11:30am 24.7 SE 4 7 1016.8 - 0.2 - - 10 - - - -
22/11:00am 23.4 SSE 5 8 1017.2 - 0.0 - - 10 - - - -
22/10:30am 22.7 SSE 5 9 1017.4 - 0.0 - - 10 - - - -
22/10:00am 21.2 S 5 8 1017.6 - 0.0 - - 10 - - - -
22/09:30am 19.0 W 7 9 1017.7 - 0.0 - - 10 - - - -
22/09:00am 15.9 W 4 7 1018.3 - 0.0 - Mostly clear 10 - - - -
22/08:58am 15.8 W 4 6 1018.3 - 0.0 - Partly cloudy 10 - - - -
22/08:30am 14.9 WNW 6 10 1018.3 - 0.0 - Cloudy 10 - - - -
22/08:24am 14.8 WNW 5 8 1018.3 - 0.0 - Cloudy 10 - - - -
22/08:00am 14.3 WNW 6 8 1018.3 - 0.0 - Cloudy 2 - - - -
22/07:30am 14.0 W 8 11 1018.2 - 0.0 - Cloudy 2 - - - -
22/07:00am 13.7 NW 7 9 1018.0 - 0.0 - Cloudy 0.3 - - - -
22/06:30am 13.3 NW 7 9 1018.0 - 0.0 - Cloudy 0.2 - - - -
22/06:00am 12.9 WNW 6 8 1017.9 - 0.0 - Cloudy 0.1 - - - -
22/05:30am 12.7 WNW 6 8 1017.6 - 0.0 - Cloudy 0.1 - - - -
22/05:00am 12.4 WNW 7 10 1017.4 - 0.0 - Cloudy 0.2 - - - -
22/04:30am 11.8 W 7 10 1017.2 - 0.0 - Cloudy 0.2 - - - -
22/04:00am 11.7 W 6 8 1017.5 - 0.0 - Cloudy 0.2 - - - -
22/03:30am 11.6 WNW 7 9 1017.5 - 0.0 - Cloudy 0.2 - - - -
22/03:00am 11.8 WNW 6 8 1017.5 - 0.0 - Cloudy 0.1 - - - -
22/02:30am 10.9 NW 6 7 1017.6 - 0.0 - Partly cloudy 0.1 - - - -
22/02:00am 8.9 WNW 5 6 1017.9 - 0.0 - Partly cloudy 0.4 - - - -
22/01:48am 9.5 NW 5 6 1018.0 - 0.0 - Partly cloudy 0.2 - - - -
22/01:30am 10.3 W 5 6 1018.3 - 0.0 - - 3 - - - -
22/01:15am 9.9 WNW 5 6 1018.4 - 0.0 - - 5 - - - -
22/01:13am 10.0 W 5 6 1018.4 - 0.0 - - 6 - - - -
22/01:00am 9.7 WNW 5 6 1018.5 - 0.0 - - 5 - - - -
22/12:30am 9.3 WSW 4 5 1018.6 - 0.0 - - 0.5 - - - -
22/12:00am 11.1 WSW 5 5 1018.8 - 0.0 - - 4 - - - -
 
Date/Time
EDT
Temp
°C
Wind Pressure Rain since
9am
mm
Weather Cloud Vis
km
Sea
Height
m
Swell
Dir  Spd
kts
Gust
kts
hPa Trend Height
m
Period
s
Dir
21/11:51pm 10.3 WSW 4 5 1018.9 - 0.0 - - 5 - - - -
21/11:37pm 10.8 SW 5 6 1019.0 - 0.0 - - 8 - - - -
21/11:30pm 11.3 SW 6 6 1019.0 - 0.0 - - 8 - - - -
21/11:18pm 10.2 SW 5 6 1019.0 - 0.0 - - 5 - - - -
21/11:00pm 11.2 SW 5 7 1019.0 - 0.0 - - 8 - - - -
21/10:30pm 11.5 SSW 5 6 1019.4 - 0.0 - - 10 - - - -
21/10:00pm 11.9 WSW 5 5 1019.5 - 0.0 - - 10 - - - -
21/09:30pm 12.5 SSW 5 5 1019.2 - 0.0 - - 10 - - - -
21/09:00pm 15.4 S 6 6 1018.9 - 0.0 - - 10 - - - -
21/08:30pm 17.1 SSE 6 8 1018.9 - 0.0 - - 10 - - - -
21/08:00pm 18.3 SE 8 9 1018.8 - 0.0 - - 10 - - - -
21/07:30pm 20.2 SE 8 11 1018.8 - 0.0 - - 10 - - - -
21/07:00pm 21.1 SE 10 12 1018.7 - 0.0 - - 10 - - - -
21/06:30pm 22.1 SE 9 12 1018.6 - 0.0 - - 10 - - - -
21/06:00pm 24.4 SE 10 12 1018.4 - 0.0 - - 10 - - - -
21/05:30pm 25.6 SE 9 12 1018.6 - 0.0 - - 10 - - - -
21/05:00pm 25.7 SE 11 14 1018.8 - 0.0 - - 10 - - - -
21/04:30pm 26.4 ESE 10 13 1018.8 - 0.0 - - 10 - - - -
21/04:00pm 26.4 ESE 10 14 1019.0 - 0.0 - - 10 - - - -
21/03:30pm 26.3 ESE 10 14 1019.4 - 0.0 - - 10 - - - -
21/03:00pm 27.0 ESE 10 15 1019.6 - 0.0 - - 10 - - - -
21/02:30pm 26.8 SSE 10 14 1019.9 - 0.0 - - 10 - - - -
21/02:00pm 27.4 SE 11 15 1020.1 - 0.0 - - 10 - - - -
21/01:30pm 27.0 ESE 10 14 1020.4 - 0.0 - - 10 - - - -
21/01:00pm 27.2 ESE 7 11 1020.6 - 0.0 - - 10 - - - -
21/12:30pm 26.3 ESE 8 11 1020.8 - 0.0 - - 10 - - - -
21/12:00pm 25.7 ESE 7 10 1021.1 - 0.0 - - 10 - - - -
21/11:30am 25.5 SE 8 13 1021.3 - 0.0 - - 10 - - - -
21/11:00am 25.2 ESE 7 11 1021.4 - 0.0 - - 10 - - - -
21/10:30am 25.0 E 7 11 1021.4 - 0.0 - - 10 - - - -
21/10:00am 23.6 ESE 6 9 1021.5 - 0.0 - - 10 - - - -
21/09:30am 22.5 ESE 5 7 1021.6 - 0.0 - - 10 - - - -
21/09:00am 21.0 E 3 5 1021.8 - 0.0 - - 10 - - - -
21/08:30am 19.4 E 4 7 1021.8 - 0.0 - - 10 - - - -
21/08:00am 17.4 E 2 4 1021.8 - 0.0 - - 10 - - - -
21/07:30am 15.3 NNE 3 4 1021.5 - 0.0 - - 10 - - - -
21/07:00am 13.7 NNE 4 5 1021.4 - 0.0 - - 10 - - - -
21/06:51am 13.6 NNE 4 5 1021.2 - 0.0 - - 10 - - - -
21/06:30am 11.3 CALM 0 1 1021.1 - 0.0 - Partly cloudy 0.5 - - - -
21/06:00am 10.1 CALM 0 0 1020.8 - 0.0 - - 1 - - - -
21/05:31am 11.4 NE 2 3 1020.7 - 0.0 - Partly cloudy 0.6 - - - -
21/05:30am 11.7 NE 2 3 1020.7 - 0.0 - Partly cloudy 0.8 - - - -
21/05:16am 12.3 NE 2 3 1020.5 - 0.0 - Partly cloudy 0.9 - - - -
21/05:00am 12.2 N 1 4 1020.3 - 0.0 - Partly cloudy 0.6 - - - -
21/04:30am 13.2 CALM 0 0 1020.3 - 0.0 - - 4 - - - -
21/04:00am 12.2 NW 4 5 1020.3 - 0.0 - - 4 - - - -
21/03:30am 13.1 WNW 3 4 1020.6 - 0.0 - - 5 - - - -
21/03:22am 13.2 WNW 4 6 1020.6 - 0.0 - - 5 - - - -
21/03:00am 13.5 WNW 7 8 1020.5 - 0.0 - - 6 - - - -
21/02:30am 13.7 WNW 5 6 1020.5 - 0.0 - - 7 - - - -
21/02:00am 14.1 WNW 7 8 1020.8 - 0.0 - - 8 - - - -
21/01:30am 14.0 WNW 5 7 1020.9 - 0.0 - - 8 - - - -
21/01:00am 14.8 W 7 9 1021.2 - 0.0 - - 9 - - - -
21/12:30am 14.8 W 7 10 1021.4 - 0.0 - - 9 - - - -
21/12:00am 14.2 WNW 7 9 1021.6 - 0.0 - - 9 - - - -
 
Date/Time
EDT
Temp
°C
Wind Pressure Rain since
9am
mm
Weather Cloud Vis
km
Sea
Height
m
Swell
Dir  Spd
kts
Gust
kts
hPa Trend Height
m
Period
s
Dir
20/11:30pm 14.3 NW 7 9 1021.7 - 0.0 - - 10 - - - -
20/11:00pm 14.6 WNW 4 5 1021.7 - 0.0 - - 10 - - - -
20/10:30pm 15.2 WSW 6 9 1021.6 - 0.0 - - 10 - - - -
20/10:00pm 15.8 SSW 9 10 1021.7 - 0.0 - - 10 - - - -
20/09:30pm 16.1 S 7 8 1021.7 - 0.0 - - 10 - - - -
20/09:00pm 16.6 SSW 8 9 1021.5 - 0.0 - - 10 - - - -
20/08:30pm 17.8 SSW 7 9 1021.2 - 0.0 - - 10 - - - -
20/08:00pm 20.0 SSE 6 7 1020.8 - 0.0 - - 10 - - - -
20/07:30pm 21.8 SE 7 8 1020.7 - 0.0 - - 10 - - - -
20/07:00pm 23.1 SE 7 8 1020.5 - 0.0 - - 10 - - - -
20/06:30pm 25.2 ESE 8 11 1020.5 - 0.0 - - 10 - - - -
20/06:00pm 24.5 ESE 7 10 1020.6 - 0.0 - - 10 - - - -
20/05:30pm 24.4 ESE 10 14 1020.7 - 0.0 - - 10 - - - -
20/05:00pm 25.7 ESE 11 15 1020.6 - 0.0 - - 10 - - - -
20/04:30pm 25.7 ESE 12 17 1020.8 - 0.0 - - 10 - - - -
20/04:00pm 25.4 ESE 13 17 1020.9 - 0.0 - - 10 - - - -
20/03:30pm 26.1 ESE 10 15 1021.1 - 0.0 - - 10 - - - -
20/03:00pm 25.7 SE 10 14 1021.5 - 0.0 - - 10 - - - -
20/02:30pm 25.8 ESE 11 15 1021.7 - 0.0 - - 10 - - - -
20/02:00pm 26.1 ESE 10 13 1022.1 - 0.0 - - 10 - - - -
20/01:30pm 26.3 SSE 8 14 1022.4 - 0.0 - - 10 - - - -
20/01:00pm 25.4 SE 9 14 1022.5 - 0.0 - - 10 - - - -
20/12:30pm 25.5 SSE 10 13 1022.8 - 0.0 - - 10 - - - -
20/12:00pm 25.5 SSE 9 13 1022.8 - 0.0 - - 10 - - - -
20/11:30am 25.8 SE 7 12 1022.9 - 0.0 - - 10 - - - -
20/11:00am 25.8 S 3 9 1023.2 - 0.0 - - 10 - - - -
20/10:30am 25.3 SSW 4 6 1023.3 - 0.0 - - 10 - - - -
20/10:00am 24.9 SSE 4 7 1023.4 - 0.0 - - 10 - - - -
20/09:30am 23.6 SSE 3 5 1023.6 - 0.0 - - 10 - - - -
20/09:00am 21.8 S 3 5 1023.6 - 0.0 - - 10 - - - -
20/08:30am 20.1 SSW 2 4 1023.6 - 0.0 - - 10 - - - -
20/08:00am 19.3 ESE 3 4 1023.4 - 0.0 - - 10 - - - -
20/07:30am 17.1 CALM 0 0 1023.0 - 0.0 - - 10 - - - -
20/07:00am 15.4 NNE 3 5 1022.6 - 0.0 - - 10 - - - -
20/06:30am 14.2 NE 6 7 1022.4 - 0.0 - - 10 - - - -
20/06:00am 13.4 NE 6 7 1022.2 - 0.0 - - 10 - - - -
20/05:30am 12.8 ENE 3 5 1022.0 - 0.0 - - 10 - - - -

Other Formats:

Comma delimited format used in spreadsheet applications
http://www.bom.gov.au/fwo/IDV60701/IDV60701.94912.axf

JavaScript Object Notation format (JSON) in row-major order
http://www.bom.gov.au/fwo/IDV60701/IDV60701.94912.json